Terminal Aerodrome Forecast
Issued by NWS Sioux Falls, SD

Home | Current Version | Previous Version | Graphics & Text | Print | Product List | Glossary On
Versions: 1 2 3 4 5 6 7 8 9 10 11 12 13 14 15 16
000
FTUS43 KFSD 120800 AAA
TAFHON
TAF AMD
KHON 120823Z 1208/1306 05006KT P6SM SCT045 OVC100
      TEMPO 1208/1211 6SM TSRA BKN035CB
     FM121300 03006KT P6SM SHRA OVC045
     FM121600 07005KT P6SM BKN050
      TEMPO 1219/1222 -SHRA
     FM130000 24005KT P6SM SCT060=

USA.gov is the U.S. government's official web portal to all federal, state and local government web resources and services.